sensor_id;sensor_type;location;lat;lon;timestamp;pressure;altitude;pressure_sealevel;temperature;humidity
74242;BME280;62599;49.146;10.426;2023-02-26T00:00:15;95111.91;;;-3.97;100.00
74242;BME280;62599;49.146;10.426;2023-02-26T00:02:42;95100.06;;;-4.00;100.00
74242;BME280;62599;49.146;10.426;2023-02-26T00:05:10;95098.47;;;-4.06;100.00
74242;BME280;62599;49.146;10.426;2023-02-26T00:07:37;95096.34;;;-4.04;100.00
74242;BME280;62599;49.146;10.426;2023-02-26T00:10:04;95104.22;;;-4.09;100.00
74242;BME280;62599;49.146;10.426;2023-02-26T00:12:30;95101.25;;;-4.18;100.00
74242;BME280;62599;49.146;10.426;2023-02-26T00:14:56;95107.78;;;-4.25;100.00
74242;BME280;62599;49.146;10.426;2023-02-26T00:19:59;95112.16;;;-4.41;100.00
74242;BME280;62599;49.146;10.426;2023-02-26T00:22:25;95104.72;;;-4.49;100.00
74242;BME280;62599;49.146;10.426;2023-02-26T00:24:51;95110.50;;;-4.47;100.00
74242;BME280;62599;49.146;10.426;2023-02-26T00:27:17;95116.31;;;-4.45;100.00
74242;BME280;62599;49.146;10.426;2023-02-26T00:29:42;95111.56;;;-4.48;100.00
74242;BME280;62599;49.146;10.426;2023-02-26T00:32:09;95118.88;;;-4.50;100.00
74242;BME280;62599;49.146;10.426;2023-02-26T00:34:35;95118.88;;;-4.50;100.00
74242;BME280;62599;49.146;10.426;2023-02-26T00:37:08;95118.84;;;-4.55;100.00
74242;BME280;62599;49.146;10.426;2023-02-26T00:42:14;95130.94;;;-4.54;100.00
74242;BME280;62599;49.146;10.426;2023-02-26T00:44:40;95138.81;;;-4.54;100.00
74242;BME280;62599;49.146;10.426;2023-02-26T00:47:37;95137.50;;;-4.57;100.00
74242;BME280;62599;49.146;10.426;2023-02-26T00:50:21;95134.09;;;-4.57;100.00
74242;BME280;62599;49.146;10.426;2023-02-26T00:53:06;95136.16;;;-4.60;100.00
74242;BME280;62599;49.146;10.426;2023-02-26T00:55:35;95129.09;;;-4.54;100.00
74242;BME280;62599;49.146;10.426;2023-02-26T00:58:01;95133.81;;;-4.61;100.00
74242;BME280;62599;49.146;10.426;2023-02-26T01:00:26;95135.59;;;-4.62;100.00
74242;BME280;62599;49.146;10.426;2023-02-26T01:02:52;95135.88;;;-4.63;100.00
74242;BME280;62599;49.146;10.426;2023-02-26T01:05:18;95141.91;;;-4.63;100.00
74242;BME280;62599;49.146;10.426;2023-02-26T01:10:24;95142.75;;;-4.57;100.00
74242;BME280;62599;49.146;10.426;2023-02-26T01:12:50;95136.72;;;-4.57;100.00
74242;BME280;62599;49.146;10.426;2023-02-26T01:15:16;95132.50;;;-4.58;100.00
74242;BME280;62599;49.146;10.426;2023-02-26T01:17:55;95133.53;;;-4.60;100.00
74242;BME280;62599;49.146;10.426;2023-02-26T01:20:26;95136.44;;;-4.61;100.00
74242;BME280;62599;49.146;10.426;2023-02-26T01:23:05;95134.81;;;-4.62;100.00
74242;BME280;62599;49.146;10.426;2023-02-26T01:25:40;95135.66;;;-4.56;100.00
74242;BME280;62599;49.146;10.426;2023-02-26T01:28:07;95145.16;;;-4.50;100.00
74242;BME280;62599;49.146;10.426;2023-02-26T01:30:36;95143.59;;;-4.51;100.00
74242;BME280;62599;49.146;10.426;2023-02-26T01:33:13;95138.63;;;-4.48;100.00
74242;BME280;62599;49.146;10.426;2023-02-26T01:35:45;95138.41;;;-4.41;100.00
74242;BME280;62599;49.146;10.426;2023-02-26T01:49:32;95136.63;;;-4.36;100.00
74242;BME280;62599;49.146;10.426;2023-02-26T01:52:00;95139.28;;;-4.30;100.00
74242;BME280;62599;49.146;10.426;2023-02-26T01:54:32;95128.50;;;-4.34;100.00
74242;BME280;62599;49.146;10.426;2023-02-26T01:57:07;95137.16;;;-4.33;100.00
74242;BME280;62599;49.146;10.426;2023-02-26T01:59:36;95144.25;;;-4.34;100.00
74242;BME280;62599;49.146;10.426;2023-02-26T02:02:04;95137.44;;;-4.35;100.00
74242;BME280;62599;49.146;10.426;2023-02-26T02:04:31;95135.31;;;-4.33;100.00
74242;BME280;62599;49.146;10.426;2023-02-26T02:06:59;95145.31;;;-4.35;100.00
74242;BME280;62599;49.146;10.426;2023-02-26T02:09:25;95142.97;;;-4.31;100.00
74242;BME280;62599;49.146;10.426;2023-02-26T02:15:06;95133.94;;;-4.41;100.00
74242;BME280;62599;49.146;10.426;2023-02-26T02:17:49;95134.66;;;-4.50;100.00
74242;BME280;62599;49.146;10.426;2023-02-26T02:23:21;95146.19;;;-4.56;100.00
74242;BME280;62599;49.146;10.426;2023-02-26T02:29:02;95146.75;;;-4.76;100.00
74242;BME280;62599;49.146;10.426;2023-02-26T02:32:07;95149.25;;;-4.92;100.00
74242;BME280;62599;49.146;10.426;2023-02-26T02:37:33;95147.56;;;-5.03;100.00
74242;BME280;62599;49.146;10.426;2023-02-26T02:40:04;95149.09;;;-5.07;100.00
74242;BME280;62599;49.146;10.426;2023-02-26T02:42:36;95137.25;;;-5.10;100.00
74242;BME280;62599;49.146;10.426;2023-02-26T02:45:09;95152.50;;;-5.06;100.00
74242;BME280;62599;49.146;10.426;2023-02-26T02:47:40;95147.22;;;-5.12;100.00
74242;BME280;62599;49.146;10.426;2023-02-26T02:50:34;95149.03;;;-5.12;100.00
74242;BME280;62599;49.146;10.426;2023-02-26T02:53:10;95154.56;;;-5.09;100.00
74242;BME280;62599;49.146;10.426;2023-02-26T02:55:42;95149.28;;;-5.14;100.00
74242;BME280;62599;49.146;10.426;2023-02-26T02:58:12;95151.41;;;-5.11;100.00
74242;BME280;62599;49.146;10.426;2023-02-26T03:00:44;95150.25;;;-5.20;100.00
74242;BME280;62599;49.146;10.426;2023-02-26T03:03:34;95161.75;;;-5.26;100.00
74242;BME280;62599;49.146;10.426;2023-02-26T03:06:01;95158.56;;;-5.28;100.00
74242;BME280;62599;49.146;10.426;2023-02-26T03:08:31;95156.50;;;-5.26;100.00
74242;BME280;62599;49.146;10.426;2023-02-26T03:10:58;95161.66;;;-5.31;100.00
74242;BME280;62599;49.146;10.426;2023-02-26T03:13:25;95163.94;;;-5.40;100.00
74242;BME280;62599;49.146;10.426;2023-02-26T03:19:06;95169.22;;;-5.57;100.00
74242;BME280;62599;49.146;10.426;2023-02-26T03:21:58;95182.91;;;-5.54;100.00
74242;BME280;62599;49.146;10.426;2023-02-26T03:30:01;95183.69;;;-5.54;100.00
74242;BME280;62599;49.146;10.426;2023-02-26T03:35:14;95186.97;;;-5.64;100.00
74242;BME280;62599;49.146;10.426;2023-02-26T03:37:47;95194.31;;;-5.66;100.00
74242;BME280;62599;49.146;10.426;2023-02-26T03:40:38;95195.41;;;-5.78;100.00
74242;BME280;62599;49.146;10.426;2023-02-26T03:43:17;95195.09;;;-5.82;100.00
74242;BME280;62599;49.146;10.426;2023-02-26T03:45:46;95190.59;;;-5.87;100.00
74242;BME280;62599;49.146;10.426;2023-02-26T03:48:17;95189.19;;;-5.94;100.00
74242;BME280;62599;49.146;10.426;2023-02-26T03:50:50;95187.63;;;-5.95;100.00
74242;BME280;62599;49.146;10.426;2023-02-26T03:53:38;95198.59;;;-5.98;100.00
74242;BME280;62599;49.146;10.426;2023-02-26T03:58:29;95210.72;;;-6.09;100.00
74242;BME280;62599;49.146;10.426;2023-02-26T04:00:59;95208.91;;;-6.09;100.00
74242;BME280;62599;49.146;10.426;2023-02-26T04:05:53;95225.16;;;-6.07;100.00
74242;BME280;62599;49.146;10.426;2023-02-26T04:08:21;95227.25;;;-6.09;100.00
74242;BME280;62599;49.146;10.426;2023-02-26T04:10:54;95231.59;;;-6.14;100.00
74242;BME280;62599;49.146;10.426;2023-02-26T04:13:21;95231.91;;;-6.11;100.00
74242;BME280;62599;49.146;10.426;2023-02-26T04:15:47;95230.41;;;-6.07;100.00
74242;BME280;62599;49.146;10.426;2023-02-26T04:18:12;95238.28;;;-6.07;100.00
74242;BME280;62599;49.146;10.426;2023-02-26T04:20:37;95242.09;;;-5.97;100.00
74242;BME280;62599;49.146;10.426;2023-02-26T04:23:03;95237.47;;;-5.90;100.00
74242;BME280;62599;49.146;10.426;2023-02-26T04:25:28;95240.41;;;-5.87;100.00
74242;BME280;62599;49.146;10.426;2023-02-26T04:27:55;95233.88;;;-5.84;100.00
74242;BME280;62599;49.146;10.426;2023-02-26T04:30:20;95241.19;;;-5.86;100.00
74242;BME280;62599;49.146;10.426;2023-02-26T04:32:45;95246.69;;;-5.88;100.00
74242;BME280;62599;49.146;10.426;2023-02-26T04:35:11;95252.66;;;-5.92;100.00
74242;BME280;62599;49.146;10.426;2023-02-26T04:37:36;95259.47;;;-5.91;100.00
74242;BME280;62599;49.146;10.426;2023-02-26T04:40:05;95260.66;;;-5.82;100.00
74242;BME280;62599;49.146;10.426;2023-02-26T04:42:31;95258.75;;;-5.70;100.00
74242;BME280;62599;49.146;10.426;2023-02-26T04:44:56;95263.09;;;-5.59;100.00
74242;BME280;62599;49.146;10.426;2023-02-26T04:47:22;95267.47;;;-5.47;100.00
74242;BME280;62599;49.146;10.426;2023-02-26T04:49:47;95264.44;;;-5.39;100.00
74242;BME280;62599;49.146;10.426;2023-02-26T04:52:12;95273.50;;;-5.30;100.00
74242;BME280;62599;49.146;10.426;2023-02-26T04:54:38;95276.72;;;-5.23;100.00
74242;BME280;62599;49.146;10.426;2023-02-26T04:57:04;95271.53;;;-5.18;100.00
74242;BME280;62599;49.146;10.426;2023-02-26T04:59:30;95282.19;;;-5.07;100.00
74242;BME280;62599;49.146;10.426;2023-02-26T05:01:55;95281.13;;;-5.06;100.00
74242;BME280;62599;49.146;10.426;2023-02-26T05:04:20;95274.44;;;-4.97;100.00
74242;BME280;62599;49.146;10.426;2023-02-26T05:06:49;95279.59;;;-5.02;100.00
74242;BME280;62599;49.146;10.426;2023-02-26T05:09:14;95282.19;;;-5.07;100.00
74242;BME280;62599;49.146;10.426;2023-02-26T05:11:40;95281.69;;;-5.04;100.00
74242;BME280;62599;49.146;10.426;2023-02-26T05:14:05;95285.81;;;-5.09;100.00
74242;BME280;62599;49.146;10.426;2023-02-26T05:16:30;95292.19;;;-5.04;100.00
74242;BME280;62599;49.146;10.426;2023-02-26T05:18:56;95291.38;;;-5.05;100.00
74242;BME280;62599;49.146;10.426;2023-02-26T05:21:21;95293.78;;;-5.03;100.00
74242;BME280;62599;49.146;10.426;2023-02-26T05:23:47;95294.56;;;-5.03;100.00
74242;BME280;62599;49.146;10.426;2023-02-26T05:26:12;95290.25;;;-4.92;100.00
74242;BME280;62599;49.146;10.426;2023-02-26T05:28:38;95301.22;;;-4.95;100.00
74242;BME280;62599;49.146;10.426;2023-02-26T05:31:03;95294.69;;;-4.93;100.00
74242;BME280;62599;49.146;10.426;2023-02-26T05:33:29;95288.19;;;-4.90;100.00
74242;BME280;62599;49.146;10.426;2023-02-26T05:35:54;95293.22;;;-4.84;100.00
74242;BME280;62599;49.146;10.426;2023-02-26T05:38:21;95295.31;;;-4.86;100.00
74242;BME280;62599;49.146;10.426;2023-02-26T05:40:47;95305.81;;;-4.86;100.00
74242;BME280;62599;49.146;10.426;2023-02-26T05:43:12;95308.19;;;-4.84;100.00
74242;BME280;62599;49.146;10.426;2023-02-26T05:45:37;95305.34;;;-4.82;100.00
74242;BME280;62599;49.146;10.426;2023-02-26T05:48:03;95314.53;;;-4.80;100.00
74242;BME280;62599;49.146;10.426;2023-02-26T05:50:28;95300.13;;;-4.77;100.00
74242;BME280;62599;49.146;10.426;2023-02-26T05:52:55;95306.25;;;-4.72;100.00
74242;BME280;62599;49.146;10.426;2023-02-26T05:55:21;95303.63;;;-4.72;100.00
74242;BME280;62599;49.146;10.426;2023-02-26T05:57:46;95318.66;;;-4.67;100.00
74242;BME280;62599;49.146;10.426;2023-02-26T06:00:12;95311.00;;;-4.69;100.00
74242;BME280;62599;49.146;10.426;2023-02-26T06:02:37;95316.81;;;-4.67;100.00
74242;BME280;62599;49.146;10.426;2023-02-26T06:05:03;95319.44;;;-4.67;100.00
74242;BME280;62599;49.146;10.426;2023-02-26T06:07:29;95322.56;;;-4.70;100.00
74242;BME280;62599;49.146;10.426;2023-02-26T06:09:54;95325.34;;;-4.76;100.00
74242;BME280;62599;49.146;10.426;2023-02-26T06:12:23;95337.69;;;-4.77;100.00
74242;BME280;62599;49.146;10.426;2023-02-26T06:14:48;95339.84;;;-4.74;100.00
74242;BME280;62599;49.146;10.426;2023-02-26T06:17:13;95346.19;;;-4.70;100.00
74242;BME280;62599;49.146;10.426;2023-02-26T06:19:39;95346.75;;;-4.68;100.00
74242;BME280;62599;49.146;10.426;2023-02-26T06:22:04;95347.28;;;-4.66;100.00
74242;BME280;62599;49.146;10.426;2023-02-26T06:24:29;95354.94;;;-4.64;100.00
74242;BME280;62599;49.146;10.426;2023-02-26T06:26:55;95353.09;;;-4.64;100.00
74242;BME280;62599;49.146;10.426;2023-02-26T06:29:20;95364.97;;;-4.61;100.00
74242;BME280;62599;49.146;10.426;2023-02-26T06:31:46;95360.56;;;-4.55;100.00
74242;BME280;62599;49.146;10.426;2023-02-26T06:34:12;95367.94;;;-4.52;100.00
74242;BME280;62599;49.146;10.426;2023-02-26T06:36:38;95370.09;;;-4.49;100.00
74242;BME280;62599;49.146;10.426;2023-02-26T06:39:04;95364.91;;;-4.44;100.00
74242;BME280;62599;49.146;10.426;2023-02-26T06:41:29;95371.72;;;-4.43;100.00
74242;BME280;62599;49.146;10.426;2023-02-26T06:43:55;95377.28;;;-4.40;100.00
74242;BME280;62599;49.146;10.426;2023-02-26T06:46:20;95373.09;;;-4.41;100.00
74242;BME280;62599;49.146;10.426;2023-02-26T06:48:46;95384.47;;;-4.35;100.00
74242;BME280;62599;49.146;10.426;2023-02-26T06:51:11;95385.88;;;-4.27;100.00
74242;BME280;62599;49.146;10.426;2023-02-26T06:53:37;95397.16;;;-4.27;100.00
74242;BME280;62599;49.146;10.426;2023-02-26T06:56:02;95396.19;;;-4.21;100.00
74242;BME280;62599;49.146;10.426;2023-02-26T06:58:28;95397.53;;;-4.18;100.00
74242;BME280;62599;49.146;10.426;2023-02-26T07:00:53;95406.81;;;-4.11;100.00
74242;BME280;62599;49.146;10.426;2023-02-26T07:03:19;95411.28;;;-4.11;100.00
74242;BME280;62599;49.146;10.426;2023-02-26T07:05:45;95424.72;;;-4.07;100.00
74242;BME280;62599;49.146;10.426;2023-02-26T07:08:11;95418.00;;;-3.98;100.00
74242;BME280;62599;49.146;10.426;2023-02-26T07:10:38;95419.94;;;-3.89;100.00
74242;BME280;62599;49.146;10.426;2023-02-26T07:13:04;95426.91;;;-3.77;100.00
74242;BME280;62599;49.146;10.426;2023-02-26T07:15:29;95424.38;;;-3.67;100.00
74242;BME280;62599;49.146;10.426;2023-02-26T07:17:54;95428.91;;;-3.63;100.00
74242;BME280;62599;49.146;10.426;2023-02-26T07:20:20;95426.78;;;-3.66;100.00
74242;BME280;62599;49.146;10.426;2023-02-26T07:22:47;95432.53;;;-3.69;100.00
74242;BME280;62599;49.146;10.426;2023-02-26T07:25:12;95439.78;;;-3.81;100.00
74242;BME280;62599;49.146;10.426;2023-02-26T07:27:38;95434.13;;;-3.90;100.00
74242;BME280;62599;49.146;10.426;2023-02-26T07:30:05;95438.59;;;-3.90;100.00
74242;BME280;62599;49.146;10.426;2023-02-26T07:32:31;95441.81;;;-3.88;100.00
74242;BME280;62599;49.146;10.426;2023-02-26T07:34:56;95447.66;;;-3.81;100.00
74242;BME280;62599;49.146;10.426;2023-02-26T07:37:22;95453.22;;;-3.77;100.00
74242;BME280;62599;49.146;10.426;2023-02-26T07:39:47;95457.56;;;-3.66;100.00
74242;BME280;62599;49.146;10.426;2023-02-26T07:42:12;95457.91;;;-3.57;100.00
74242;BME280;62599;49.146;10.426;2023-02-26T07:44:38;95463.56;;;-3.44;100.00
74242;BME280;62599;49.146;10.426;2023-02-26T07:47:04;95462.34;;;-3.31;100.00
74242;BME280;62599;49.146;10.426;2023-02-26T07:49:31;95467.72;;;-3.21;100.00
74242;BME280;62599;49.146;10.426;2023-02-26T07:51:58;95464.13;;;-3.09;100.00
74242;BME280;62599;49.146;10.426;2023-02-26T07:54:23;95480.78;;;-3.04;100.00
74242;BME280;62599;49.146;10.426;2023-02-26T07:56:49;95471.59;;;-3.01;100.00
74242;BME280;62599;49.146;10.426;2023-02-26T07:59:15;95478.84;;;-3.13;100.00
74242;BME280;62599;49.146;10.426;2023-02-26T08:01:41;95477.28;;;-3.15;100.00
74242;BME280;62599;49.146;10.426;2023-02-26T08:04:06;95481.84;;;-3.05;100.00
74242;BME280;62599;49.146;10.426;2023-02-26T08:06:32;95468.59;;;-3.10;100.00
74242;BME280;62599;49.146;10.426;2023-02-26T08:08:57;95475.13;;;-3.18;100.00
74242;BME280;62599;49.146;10.426;2023-02-26T08:11:23;95481.19;;;-3.17;100.00
74242;BME280;62599;49.146;10.426;2023-02-26T08:13:48;95475.47;;;-3.09;100.00
74242;BME280;62599;49.146;10.426;2023-02-26T08:16:13;95484.78;;;-3.01;100.00
74242;BME280;62599;49.146;10.426;2023-02-26T08:18:39;95486.94;;;-2.93;100.00
74242;BME280;62599;49.146;10.426;2023-02-26T08:21:04;95484.00;;;-2.64;100.00
74242;BME280;62599;49.146;10.426;2023-02-26T08:23:30;95490.88;;;-2.58;100.00
74242;BME280;62599;49.146;10.426;2023-02-26T08:26:07;95493.00;;;-2.60;100.00
74242;BME280;62599;49.146;10.426;2023-02-26T08:28:33;95499.84;;;-2.59;100.00
74242;BME280;62599;49.146;10.426;2023-02-26T08:30:59;95496.22;;;-2.53;100.00
74242;BME280;62599;49.146;10.426;2023-02-26T08:33:25;95502.38;;;-2.37;100.00
74242;BME280;62599;49.146;10.426;2023-02-26T08:35:51;95500.56;;;-2.32;99.59
74242;BME280;62599;49.146;10.426;2023-02-26T08:38:18;95503.22;;;-2.27;99.81
74242;BME280;62599;49.146;10.426;2023-02-26T08:40:43;95503.66;;;-2.40;97.40
74242;BME280;62599;49.146;10.426;2023-02-26T08:43:09;95510.84;;;-2.30;98.71
74242;BME280;62599;49.146;10.426;2023-02-26T08:45:36;95516.81;;;-2.45;97.31
74242;BME280;62599;49.146;10.426;2023-02-26T08:48:02;95515.13;;;-2.61;97.36
74242;BME280;62599;49.146;10.426;2023-02-26T08:50:27;95518.84;;;-2.57;98.08
74242;BME280;62599;49.146;10.426;2023-02-26T08:52:53;95534.66;;;-2.57;97.56
74242;BME280;62599;49.146;10.426;2023-02-26T08:55:18;95531.47;;;-2.59;98.36
74242;BME280;62599;49.146;10.426;2023-02-26T08:57:44;95535.25;;;-2.50;97.63
74242;BME280;62599;49.146;10.426;2023-02-26T09:00:09;95535.66;;;-2.63;97.75
74242;BME280;62599;49.146;10.426;2023-02-26T09:02:36;95537.81;;;-2.55;97.16
74242;BME280;62599;49.146;10.426;2023-02-26T09:05:03;95539.13;;;-2.58;97.53
74242;BME280;62599;49.146;10.426;2023-02-26T09:07:28;95552.66;;;-2.49;97.78
74242;BME280;62599;49.146;10.426;2023-02-26T09:09:54;95550.41;;;-2.30;97.63
74242;BME280;62599;49.146;10.426;2023-02-26T09:12:19;95553.34;;;-2.22;96.77
74242;BME280;62599;49.146;10.426;2023-02-26T09:14:44;95560.25;;;-2.21;96.47
74242;BME280;62599;49.146;10.426;2023-02-26T09:17:10;95568.63;;;-2.29;94.67
74242;BME280;62599;49.146;10.426;2023-02-26T09:19:35;95564.94;;;-2.28;95.72
74242;BME280;62599;49.146;10.426;2023-02-26T09:22:01;95565.72;;;-2.27;94.85
74242;BME280;62599;49.146;10.426;2023-02-26T09:24:26;95567.03;;;-2.30;95.89
74242;BME280;62599;49.146;10.426;2023-02-26T09:26:51;95563.69;;;-2.15;95.77
74242;BME280;62599;49.146;10.426;2023-02-26T09:29:17;95570.13;;;-2.01;95.89
74242;BME280;62599;49.146;10.426;2023-02-26T09:31:42;95571.47;;;-1.93;94.23
74242;BME280;62599;49.146;10.426;2023-02-26T09:34:08;95572.09;;;-1.81;93.94
74242;BME280;62599;49.146;10.426;2023-02-26T09:36:33;95578.47;;;-1.72;93.30
74242;BME280;62599;49.146;10.426;2023-02-26T09:38:58;95572.22;;;-1.55;91.96
74242;BME280;62599;49.146;10.426;2023-02-26T09:41:29;95582.78;;;-1.50;90.81
74242;BME280;62599;49.146;10.426;2023-02-26T09:49:06;95587.78;;;-1.59;90.68
74242;BME280;62599;49.146;10.426;2023-02-26T09:51:36;95596.00;;;-1.50;90.87
74242;BME280;62599;49.146;10.426;2023-02-26T09:54:16;95591.00;;;-1.52;90.63
74242;BME280;62599;49.146;10.426;2023-02-26T09:56:43;95600.72;;;-1.57;92.70
74242;BME280;62599;49.146;10.426;2023-02-26T09:59:09;95599.66;;;-1.61;93.19
74242;BME280;62599;49.146;10.426;2023-02-26T10:02:04;95612.03;;;-1.67;93.54
74242;BME280;62599;49.146;10.426;2023-02-26T10:04:50;95608.41;;;-1.56;95.81
74242;BME280;62599;49.146;10.426;2023-02-26T10:07:55;95618.31;;;-1.73;95.75
74242;BME280;62599;49.146;10.426;2023-02-26T10:10:25;95624.88;;;-1.81;95.93
74242;BME280;62599;49.146;10.426;2023-02-26T10:12:54;95624.88;;;-1.81;93.95
74242;BME280;62599;49.146;10.426;2023-02-26T10:15:24;95623.91;;;-1.64;93.49
74242;BME280;62599;49.146;10.426;2023-02-26T10:20:24;95632.59;;;-1.74;91.54
74242;BME280;62599;49.146;10.426;2023-02-26T10:25:20;95632.34;;;-1.67;92.35
74242;BME280;62599;49.146;10.426;2023-02-26T10:27:59;95630.47;;;-1.72;91.47
74242;BME280;62599;49.146;10.426;2023-02-26T10:33:03;95639.75;;;-1.64;91.17
74242;BME280;62599;49.146;10.426;2023-02-26T10:35:37;95636.09;;;-1.58;90.86
74242;BME280;62599;49.146;10.426;2023-02-26T10:38:15;95638.56;;;-1.41;87.97
74242;BME280;62599;49.146;10.426;2023-02-26T10:43:10;95632.31;;;-1.25;86.57
74242;BME280;62599;49.146;10.426;2023-02-26T10:51:24;95645.78;;;-1.22;86.89
74242;BME280;62599;49.146;10.426;2023-02-26T10:54:18;95641.63;;;-1.12;86.31
74242;BME280;62599;49.146;10.426;2023-02-26T10:56:42;95643.69;;;-1.19;84.68
74242;BME280;62599;49.146;10.426;2023-02-26T10:59:07;95648.41;;;-1.27;85.76
74242;BME280;62599;49.146;10.426;2023-02-26T11:01:33;95661.59;;;-1.32;86.05
74242;BME280;62599;49.146;10.426;2023-02-26T11:07:13;95654.16;;;-0.77;86.69
74242;BME280;62599;49.146;10.426;2023-02-26T11:09:44;95651.50;;;-0.77;85.58
74242;BME280;62599;49.146;10.426;2023-02-26T11:14:36;95649.56;;;-1.07;83.19
74242;BME280;62599;49.146;10.426;2023-02-26T11:17:14;95654.72;;;-1.33;86.50
74242;BME280;62599;49.146;10.426;2023-02-26T11:19:45;95652.53;;;-1.46;87.33
74242;BME280;62599;49.146;10.426;2023-02-26T11:22:14;95663.44;;;-1.37;85.39
74242;BME280;62599;49.146;10.426;2023-02-26T11:24:50;95656.06;;;-1.30;85.24
74242;BME280;62599;49.146;10.426;2023-02-26T11:27:21;95659.56;;;-1.19;81.86
74242;BME280;62599;49.146;10.426;2023-02-26T11:29:56;95646.91;;;-1.12;79.27
74242;BME280;62599;49.146;10.426;2023-02-26T11:32:29;95643.44;;;-1.13;80.18
74242;BME280;62599;49.146;10.426;2023-02-26T11:34:54;95647.97;;;-1.08;79.55
74242;BME280;62599;49.146;10.426;2023-02-26T11:37:27;95637.97;;;-0.96;78.89
74242;BME280;62599;49.146;10.426;2023-02-26T11:39:57;95643.53;;;-0.92;78.25
74242;BME280;62599;49.146;10.426;2023-02-26T11:42:24;95639.31;;;-0.88;78.89
74242;BME280;62599;49.146;10.426;2023-02-26T11:44:50;95640.63;;;-0.91;79.75
74242;BME280;62599;49.146;10.426;2023-02-26T11:47:20;95637.44;;;-0.93;80.42
74242;BME280;62599;49.146;10.426;2023-02-26T11:49:52;95646.47;;;-0.79;78.58
74242;BME280;62599;49.146;10.426;2023-02-26T11:52:31;95644.91;;;-0.75;78.14
74242;BME280;62599;49.146;10.426;2023-02-26T11:55:03;95635.13;;;-0.74;76.83
74242;BME280;62599;49.146;10.426;2023-02-26T11:57:30;95635.13;;;-0.79;76.88
74242;BME280;62599;49.146;10.426;2023-02-26T11:59:58;95635.34;;;-0.81;76.50
74242;BME280;62599;49.146;10.426;2023-02-26T12:02:26;95638.53;;;-0.84;75.82
74242;BME280;62599;49.146;10.426;2023-02-26T12:04:58;95637.25;;;-0.71;78.50
74242;BME280;62599;49.146;10.426;2023-02-26T12:07:26;95636.22;;;-0.44;75.54
74242;BME280;62599;49.146;10.426;2023-02-26T12:09:52;95637.31;;;-0.35;74.57
74242;BME280;62599;49.146;10.426;2023-02-26T12:12:34;95637.34;;;-0.25;75.82
74242;BME280;62599;49.146;10.426;2023-02-26T12:15:30;95639.19;;;-0.10;75.10
74242;BME280;62599;49.146;10.426;2023-02-26T12:29:39;95638.63;;;-0.28;74.57
74242;BME280;62599;49.146;10.426;2023-02-26T12:38:19;95642.09;;;-0.02;76.77
74242;BME280;62599;49.146;10.426;2023-02-26T12:40:59;95639.97;;;-0.20;75.98
74242;BME280;62599;49.146;10.426;2023-02-26T12:43:49;95641.53;;;-0.29;76.71
74242;BME280;62599;49.146;10.426;2023-02-26T12:55:13;95637.31;;;-0.20;75.40
74242;BME280;62599;49.146;10.426;2023-02-26T13:01:26;95629.66;;;-0.32;75.51
74242;BME280;62599;49.146;10.426;2023-02-26T13:04:40;95630.94;;;-0.29;74.23
74242;BME280;62599;49.146;10.426;2023-02-26T13:10:20;95639.41;;;0.44;72.89
74242;BME280;62599;49.146;10.426;2023-02-26T13:13:09;95641.56;;;0.07;71.75
74242;BME280;62599;49.146;10.426;2023-02-26T13:18:33;95638.66;;;-0.33;72.69
74242;BME280;62599;49.146;10.426;2023-02-26T13:21:07;95643.94;;;-0.28;73.18
74242;BME280;62599;49.146;10.426;2023-02-26T13:24:09;95647.09;;;-0.15;74.01
74242;BME280;62599;49.146;10.426;2023-02-26T13:26:36;95643.16;;;-0.03;72.98
74242;BME280;62599;49.146;10.426;2023-02-26T13:29:23;95651.09;;;-0.03;70.88
74242;BME280;62599;49.146;10.426;2023-02-26T13:32:00;95644.22;;;-0.09;70.41
74242;BME280;62599;49.146;10.426;2023-02-26T13:34:41;95646.59;;;-0.02;69.00
74242;BME280;62599;49.146;10.426;2023-02-26T13:45:20;95658.75;;;-0.32;71.28
74242;BME280;62599;49.146;10.426;2023-02-26T14:01:31;95669.22;;;-0.83;70.61
74242;BME280;62599;49.146;10.426;2023-02-26T14:17:17;95682.00;;;-0.49;68.24
74242;BME280;62599;49.146;10.426;2023-02-26T14:24:57;95680.31;;;-0.81;68.34
74242;BME280;62599;49.146;10.426;2023-02-26T14:27:36;95687.28;;;-0.54;69.83
74242;BME280;62599;49.146;10.426;2023-02-26T14:32:53;95695.72;;;-0.57;67.79
74242;BME280;62599;49.146;10.426;2023-02-26T14:35:29;95689.13;;;-0.50;69.63
74242;BME280;62599;49.146;10.426;2023-02-26T14:38:20;95689.94;;;-0.44;66.26
74242;BME280;62599;49.146;10.426;2023-02-26T14:40:53;95683.81;;;-0.65;68.69
74242;BME280;62599;49.146;10.426;2023-02-26T14:43:36;95697.47;;;-0.88;66.71
74242;BME280;62599;49.146;10.426;2023-02-26T14:46:03;95703.03;;;-0.90;68.99
74242;BME280;62599;49.146;10.426;2023-02-26T14:48:30;95702.56;;;-0.71;68.78
74242;BME280;62599;49.146;10.426;2023-02-26T14:54:18;95705.28;;;-0.46;68.08
74242;BME280;62599;49.146;10.426;2023-02-26T15:25:38;95738.47;;;-1.33;70.55
74242;BME280;62599;49.146;10.426;2023-02-26T15:28:06;95740.75;;;-1.42;72.43
74242;BME280;62599;49.146;10.426;2023-02-26T15:30:35;95743.47;;;-1.32;69.92
74242;BME280;62599;49.146;10.426;2023-02-26T15:33:03;95741.66;;;-1.26;70.41
74242;BME280;62599;49.146;10.426;2023-02-26T15:35:30;95735.88;;;-1.23;70.55
74242;BME280;62599;49.146;10.426;2023-02-26T15:37:59;95744.41;;;-1.11;68.87
74242;BME280;62599;49.146;10.426;2023-02-26T15:40:35;95753.97;;;-1.00;69.85
74242;BME280;62599;49.146;10.426;2023-02-26T15:43:04;95744.19;;;-1.04;68.21
74242;BME280;62599;49.146;10.426;2023-02-26T15:45:39;95765.47;;;-1.21;67.72
74242;BME280;62599;49.146;10.426;2023-02-26T15:48:17;95756.91;;;-1.38;69.19
74242;BME280;62599;49.146;10.426;2023-02-26T15:50:47;95761.31;;;-1.49;69.56
74242;BME280;62599;49.146;10.426;2023-02-26T15:53:47;95754.88;;;-1.63;70.08
74242;BME280;62599;49.146;10.426;2023-02-26T15:56:16;95757.97;;;-1.72;70.99
74242;BME280;62599;49.146;10.426;2023-02-26T15:58:51;95762.16;;;-1.76;71.82
74242;BME280;62599;49.146;10.426;2023-02-26T16:01:21;95770.06;;;-1.76;70.28